Time;durP1;ratioP1;P1;durP2;ratioP2;P2;SDS_P1;SDS_P2;PMS_P1;PMS_P2;Temp;Humidity;BMP_temperature;BMP_pressure;BME280_temperature;BME280_humidity;BME280_pressure;Samples;Min_cycle;Max_cycle;Signal;HPM_P1;HPM_P2
2023/07/09 00:01:05;;;;;;;34.10;31.60;;;24.60;99.90;;;;;;5011013;28;20415;-75
2023/07/09 00:03:31;;;;;;;33.50;31.60;;;24.60;99.90;;;;;;5013463;28;20044;-75
2023/07/09 00:05:57;;;;;;;37.35;34.97;;;24.60;99.90;;;;;;5011038;28;20049;-76
2023/07/09 00:08:28;;;;;;;26.83;24.63;;;24.60;99.90;;;;;;5012748;28;20026;-75
2023/07/09 00:10:54;;;;;;;;;;;24.60;99.90;;;;;;5012546;28;20026;-75
2023/07/09 00:13:21;;;;;;;31.25;29.33;;;24.60;99.90;;;;;;5012008;28;20266;-75
2023/07/09 00:15:48;;;;;;;25.25;23.20;;;24.60;99.90;;;;;;5011318;28;20044;-75
2023/07/09 00:18:14;;;;;;;23.35;21.75;;;24.60;99.90;;;;;;5012302;28;20041;-75
2023/07/09 00:20:43;;;;;;;24.50;22.40;;;24.60;99.90;;;;;;5012937;28;20048;-75
2023/07/09 00:23:13;;;;;;;26.33;24.20;;;24.40;99.90;;;;;;5027701;28;20033;-76
2023/07/09 00:25:44;;;;;;;22.98;21.33;;;24.30;99.90;;;;;;5013047;28;20037;-75
2023/07/09 00:28:17;;;;;;;22.15;20.40;;;24.30;99.90;;;;;;5044211;28;20046;-75
2023/07/09 00:30:46;;;;;;;21.88;20.08;;;24.30;99.90;;;;;;5012447;28;20035;-76
2023/07/09 00:33:14;;;;;;;22.20;20.73;;;24.30;99.90;;;;;;5013061;28;20357;-75
2023/07/09 00:35:48;;;;;;;20.15;18.73;;;24.30;99.90;;;;;;5027673;28;20021;-75
2023/07/09 00:38:22;;;;;;;25.38;23.15;;;24.20;99.90;;;;;;5044269;28;20390;-75
2023/07/09 00:40:59;;;;;;;28.38;26.48;;;24.20;99.90;;;;;;5011586;28;20029;-76
2023/07/09 00:43:29;;;;;;;24.35;22.75;;;24.20;99.90;;;;;;5027371;28;20037;-75
2023/07/09 00:46:17;;;;;;;27.15;25.25;;;24.20;99.90;;;;;;5012169;28;20038;-76
2023/07/09 00:48:43;;;;;;;26.65;24.70;;;24.10;99.90;;;;;;5027819;28;20383;-75
2023/07/09 00:51:14;;;;;;;24.13;22.63;;;24.00;99.90;;;;;;5010957;28;20427;-75
2023/07/09 00:53:45;;;;;;;19.00;17.50;;;24.00;99.90;;;;;;5027891;28;20455;-75
2023/07/09 00:56:16;;;;;;;19.17;17.52;;;23.90;99.90;;;;;;5027056;28;20471;-75
2023/07/09 00:58:43;;;;;;;18.65;17.27;;;24.00;99.90;;;;;;5027628;28;20038;-75
2023/07/09 01:01:11;;;;;;;18.83;17.08;;;23.90;99.90;;;;;;5027040;28;20041;-75
2023/07/09 01:03:48;;;;;;;22.00;20.30;;;23.90;99.90;;;;;;5027787;28;20026;-75
2023/07/09 01:06:15;;;;;;;20.05;18.55;;;23.90;99.90;;;;;;5026064;28;20471;-75
2023/07/09 01:08:42;;;;;;;21.63;19.90;;;23.90;99.90;;;;;;5027598;28;20037;-75
2023/07/09 01:11:20;;;;;;;19.77;18.08;;;23.90;99.90;;;;;;5027431;28;20026;-75
2023/07/09 01:14:06;;;;;;;18.77;17.10;;;23.90;99.90;;;;;;5027213;28;20033;-75
2023/07/09 01:16:37;;;;;;;20.00;18.40;;;23.90;99.90;;;;;;5010590;28;20049;-75
2023/07/09 01:19:04;;;;;;;19.83;18.13;;;23.90;99.90;;;;;;5012407;28;20487;-75
2023/07/09 01:21:31;;;;;;;21.65;20.08;;;23.80;99.90;;;;;;5033526;28;20046;-76
2023/07/09 01:23:58;;;;;;;19.75;18.02;;;23.80;99.90;;;;;;5034084;28;20025;-75
2023/07/09 01:26:25;;;;;;;23.63;22.13;;;23.60;99.90;;;;;;5033998;28;20048;-75
2023/07/09 01:28:52;;;;;;;19.48;17.63;;;23.60;99.90;;;;;;5018900;28;20022;-76
2023/07/09 01:31:20;;;;;;;19.95;18.30;;;23.50;99.90;;;;;;5033343;28;20040;-75
2023/07/09 01:33:46;;;;;;;23.65;22.15;;;23.50;99.90;;;;;;5018873;28;20038;-75
2023/07/09 01:36:14;;;;;;;20.92;19.25;;;23.40;99.90;;;;;;5033474;28;20030;-75
2023/07/09 01:38:41;;;;;;;22.00;20.33;;;23.40;99.90;;;;;;5050667;28;20017;-75
2023/07/09 01:41:07;;;;;;;21.48;19.98;;;23.40;99.90;;;;;;5030519;28;20050;-75
2023/07/09 01:43:33;;;;;;;22.77;21.05;;;23.40;99.90;;;;;;5030796;28;20022;-75
2023/07/09 01:46:00;;;;;;;17.30;16.05;;;23.40;99.90;;;;;;5005249;28;20487;-75
2023/07/09 01:48:26;;;;;;;18.60;17.30;;;23.40;99.90;;;;;;5034021;28;20022;-75
2023/07/09 01:50:53;;;;;;;22.23;20.27;;;23.30;99.90;;;;;;5016880;28;20050;-75
2023/07/09 01:53:23;;;;;;;20.80;19.25;;;23.40;99.90;;;;;;5018766;28;20037;-75
2023/07/09 01:55:50;;;;;;;21.45;19.95;;;23.40;99.90;;;;;;5033570;28;20034;-75
2023/07/09 01:58:17;;;;;;;19.58;18.02;;;23.40;99.90;;;;;;5033410;28;20025;-75
2023/07/09 02:00:44;;;;;;;18.80;17.30;;;23.40;99.90;;;;;;5028999;28;20048;-75
2023/07/09 02:03:10;;;;;;;20.02;18.52;;;23.30;99.90;;;;;;5014142;28;20034;-76
2023/07/09 02:05:37;;;;;;;21.20;19.60;;;23.30;99.90;;;;;;5014330;28;20030;-74
2023/07/09 02:08:03;;;;;;;23.65;21.95;;;23.20;99.90;;;;;;5032433;28;20383;-75
2023/07/09 02:10:29;;;;;;;27.92;26.08;;;23.10;99.90;;;;;;5016979;28;20029;-75
2023/07/09 02:12:55;;;;;;;25.40;23.58;;;23.20;99.90;;;;;;5017314;28;20490;-75
2023/07/09 02:15:22;;;;;;;23.65;21.45;;;23.20;99.90;;;;;;5016580;28;20042;-76
2023/07/09 02:17:48;;;;;;;22.45;20.95;;;23.20;99.90;;;;;;5032072;28;20033;-75
2023/07/09 02:20:15;;;;;;;20.88;19.13;;;23.20;99.90;;;;;;5017048;28;20044;-76
2023/07/09 02:22:41;;;;;;;23.05;21.15;;;23.20;99.90;;;;;;5032369;28;20021;-75
2023/07/09 02:25:08;;;;;;;24.90;22.92;;;23.20;99.90;;;;;;5049282;28;20041;-76
2023/07/09 02:27:35;;;;;;;22.85;21.10;;;23.20;99.90;;;;;;5032370;28;20545;-76
2023/07/09 02:30:02;;;;;;;21.88;20.00;;;23.10;99.90;;;;;;5032429;28;20044;-75
2023/07/09 02:32:28;;;;;;;22.00;20.10;;;23.00;99.90;;;;;;5027750;28;20041;-75
2023/07/09 02:34:54;;;;;;;27.05;24.80;;;23.00;99.90;;;;;;5014278;28;20030;-76
2023/07/09 02:37:22;;;;;;;26.67;24.85;;;23.00;99.90;;;;;;5010166;28;20030;-76
2023/07/09 02:39:48;;;;;;;24.52;22.63;;;23.00;99.90;;;;;;4994316;28;20022;-76
2023/07/09 02:42:16;;;;;;;23.25;21.55;;;23.00;99.90;;;;;;5011112;28;20038;-76
2023/07/09 02:44:42;;;;;;;25.27;23.58;;;22.90;99.90;;;;;;5015149;28;20026;-76
2023/07/09 02:47:08;;;;;;;28.88;26.83;;;22.80;99.90;;;;;;5014004;28;20038;-76
2023/07/09 02:49:35;;;;;;;30.95;28.63;;;22.80;99.90;;;;;;5012529;28;20038;-76
2023/07/09 02:52:01;;;;;;;26.60;24.67;;;22.80;99.90;;;;;;5010206;28;20061;-76
2023/07/09 02:54:27;;;;;;;33.50;31.40;;;22.80;99.90;;;;;;5014855;28;20490;-75
2023/07/09 02:56:53;;;;;;;31.55;29.30;;;22.80;99.90;;;;;;5030020;28;20478;-76
2023/07/09 02:59:19;;;;;;;30.42;28.33;;;22.80;99.90;;;;;;5030204;28;20034;-76
2023/07/09 03:01:47;;;;;;;36.08;33.55;;;22.90;99.90;;;;;;5028624;28;20454;-76
2023/07/09 03:04:16;;;;;;;46.50;43.72;;;22.90;99.90;;;;;;5013722;28;20045;-75
2023/07/09 03:06:42;;;;;;;40.40;37.80;;;22.80;99.90;;;;;;5029704;28;20026;-75
2023/07/09 03:09:08;;;;;;;31.88;29.52;;;22.80;99.90;;;;;;5029832;28;20026;-75
2023/07/09 03:11:35;;;;;;;20.85;19.10;;;22.80;99.90;;;;;;5029329;28;20390;-75
2023/07/09 03:14:01;;;;;;;23.55;21.58;;;22.80;99.90;;;;;;5029470;28;20045;-75
2023/07/09 03:16:28;;;;;;;24.88;23.08;;;22.80;99.90;;;;;;5002852;28;20530;-76
2023/07/09 03:18:54;;;;;;;21.35;19.70;;;22.70;99.90;;;;;;5009971;28;20038;-75
2023/07/09 03:21:24;;;;;;;22.27;20.08;;;22.60;99.90;;;;;;5009505;28;20419;-75
2023/07/09 03:23:50;;;;;;;22.90;21.02;;;22.40;99.90;;;;;;5009964;28;20037;-75
2023/07/09 03:26:16;;;;;;;22.15;20.08;;;22.30;99.90;;;;;;5009546;28;20026;-75
2023/07/09 03:28:42;;;;;;;26.90;24.83;;;22.30;99.90;;;;;;4994801;28;20030;-76
2023/07/09 03:31:08;;;;;;;27.15;25.25;;;22.40;99.90;;;;;;5008598;28;20034;-75
2023/07/09 03:33:35;;;;;;;23.00;21.02;;;22.50;99.90;;;;;;5009610;28;20049;-76
2023/07/09 03:36:01;;;;;;;28.13;26.15;;;22.50;99.90;;;;;;5008431;28;20033;-75
2023/07/09 03:38:27;;;;;;;29.05;26.85;;;22.60;99.90;;;;;;4994517;28;20030;-75
2023/07/09 03:40:53;;;;;;;30.75;28.63;;;22.60;99.90;;;;;;4993026;28;20034;-76
2023/07/09 03:43:19;;;;;;;30.30;28.17;;;22.60;99.90;;;;;;5008995;28;20038;-75
2023/07/09 03:45:46;;;;;;;30.50;28.10;;;22.60;99.90;;;;;;5014178;28;20038;-75
2023/07/09 03:48:12;;;;;;;34.08;31.92;;;22.70;99.90;;;;;;5022949;28;20022;-76
2023/07/09 03:50:38;;;;;;;35.17;32.80;;;22.70;99.90;;;;;;4996209;28;20406;-76
2023/07/09 03:53:05;;;;;;;34.42;31.85;;;22.70;99.90;;;;;;5029135;28;20026;-75
2023/07/09 03:55:32;;;;;;;32.45;30.05;;;22.70;99.90;;;;;;5013697;28;20032;-75
2023/07/09 03:57:58;;;;;;;33.55;31.48;;;22.70;99.90;;;;;;5029015;28;20487;-75
2023/07/09 04:00:26;;;;;;;26.05;24.00;;;22.70;99.90;;;;;;5028078;28;20038;-76
2023/07/09 04:02:53;;;;;;;20.98;19.50;;;22.70;99.90;;;;;;5028211;28;20383;-75
2023/07/09 04:05:19;;;;;;;21.95;20.35;;;22.70;99.90;;;;;;5013329;28;20478;-75
2023/07/09 04:07:45;;;;;;;20.75;18.77;;;22.70;99.90;;;;;;5028796;28;20057;-75
2023/07/09 04:10:11;;;;;;;20.05;18.45;;;22.70;99.90;;;;;;5013425;28;20021;-75
2023/07/09 04:12:37;;;;;;;21.70;20.17;;;22.60;99.90;;;;;;4994449;28;20031;-75
2023/07/09 04:15:04;;;;;;;21.15;19.92;;;22.70;99.90;;;;;;5011553;28;20030;-75
2023/07/09 04:17:30;;;;;;;22.77;21.17;;;22.70;99.90;;;;;;4993116;28;20034;-75
2023/07/09 04:19:56;;;;;;;25.95;23.92;;;22.70;99.90;;;;;;4993646;28;20026;-76
2023/07/09 04:22:22;;;;;;;28.30;26.48;;;22.70;99.90;;;;;;4993480;28;20048;-75
2023/07/09 04:24:49;;;;;;;24.40;22.50;;;22.60;99.90;;;;;;4993807;28;20023;-75
2023/07/09 04:27:16;;;;;;;24.63;22.73;;;22.60;99.90;;;;;;5008564;28;20468;-76
2023/07/09 04:29:42;;;;;;;17.88;16.58;;;22.60;99.90;;;;;;4992182;28;20046;-76
2023/07/09 04:32:11;;;;;;;18.63;16.85;;;22.60;99.90;;;;;;5009887;28;20034;-76
2023/07/09 04:34:38;;;;;;;16.83;15.48;;;22.60;99.90;;;;;;5027846;28;20032;-75
2023/07/09 04:37:08;;;;;;;17.27;15.82;;;22.60;99.90;;;;;;4999648;28;20476;-76
2023/07/09 04:39:34;;;;;;;18.00;16.42;;;22.60;99.90;;;;;;4992209;28;20130;-76
2023/07/09 04:42:01;;;;;;;24.38;22.38;;;22.60;99.90;;;;;;5011621;28;20038;-75
2023/07/09 04:44:27;;;;;;;25.05;23.10;;;22.50;99.90;;;;;;5012633;28;20026;-76
2023/07/09 04:46:54;;;;;;;47.50;44.45;;;22.40;99.90;;;;;;5027626;28;20406;-76
2023/07/09 04:49:20;;;;;;;29.48;27.33;;;22.40;99.90;;;;;;5012636;28;20034;-76
2023/07/09 04:51:46;;;;;;;26.88;24.77;;;22.30;99.90;;;;;;5005751;28;20049;-75
2023/07/09 04:54:14;;;;;;;20.45;18.92;;;22.30;99.90;;;;;;5012213;28;20026;-76
2023/07/09 04:56:44;;;;;;;31.33;29.42;;;22.30;99.90;;;;;;5027338;28;20041;-76
2023/07/09 04:59:11;;;;;;;33.85;31.63;;;22.30;99.90;;;;;;5012898;28;20038;-76
2023/07/09 05:01:37;;;;;;;40.75;37.83;;;22.30;99.90;;;;;;5012002;28;20411;-75
2023/07/09 05:04:04;;;;;;;27.33;25.20;;;22.30;99.90;;;;;;5028050;28;20037;-75
2023/07/09 05:06:30;;;;;;;26.77;24.70;;;22.20;99.90;;;;;;5012177;28;20041;-76
2023/07/09 05:08:56;;;;;;;23.70;21.60;;;22.10;99.90;;;;;;5012671;28;20041;-76
2023/07/09 05:11:22;;;;;;;22.05;20.27;;;22.20;99.90;;;;;;5027611;28;20029;-75
2023/07/09 05:13:48;;;;;;;19.58;18.08;;;22.20;99.90;;;;;;5027296;28;20042;-76
2023/07/09 05:16:14;;;;;;;24.13;22.40;;;22.30;99.90;;;;;;5003338;28;20400;-76
2023/07/09 05:18:40;;;;;;;19.20;17.70;;;22.30;99.90;;;;;;5008244;28;20037;-76
2023/07/09 05:21:06;;;;;;;22.60;20.80;;;22.30;99.90;;;;;;4992792;28;20042;-76
2023/07/09 05:23:32;;;;;;;20.95;19.38;;;22.30;99.90;;;;;;5007895;28;20026;-75
2023/07/09 05:25:59;;;;;;;20.05;18.55;;;22.40;99.90;;;;;;4992738;28;20031;-76
2023/07/09 05:28:25;;;;;;;18.77;17.35;;;22.40;99.90;;;;;;5007791;28;20030;-76
2023/07/09 05:30:51;;;;;;;21.45;19.50;;;22.40;99.90;;;;;;5013908;28;20036;-75
2023/07/09 05:33:18;;;;;;;24.15;22.42;;;22.40;99.90;;;;;;5012411;28;20034;-75
2023/07/09 05:35:44;;;;;;;21.67;19.95;;;22.40;99.90;;;;;;5007989;28;20068;-75
2023/07/09 05:38:11;;;;;;;20.42;18.77;;;22.40;99.90;;;;;;4972376;28;20031;-75
2023/07/09 05:40:37;;;;;;;19.95;18.60;;;22.30;99.90;;;;;;4979050;28;20501;-75
2023/07/09 05:43:04;;;;;;;24.35;22.63;;;22.40;99.90;;;;;;5027297;28;20041;-76
2023/07/09 05:45:31;;;;;;;21.23;19.77;;;22.40;99.90;;;;;;5026776;28;20049;-76
2023/07/09 05:48:00;;;;;;;20.70;18.95;;;22.50;99.90;;;;;;5023125;28;20030;-76
2023/07/09 05:50:27;;;;;;;19.58;18.08;;;22.50;99.90;;;;;;4977112;28;20050;-76
2023/07/09 05:52:53;;;;;;;21.58;19.88;;;22.60;99.90;;;;;;5027456;28;20468;-76
2023/07/09 05:55:19;;;;;;;20.92;19.15;;;22.60;99.90;;;;;;5026757;28;20086;-76
2023/07/09 05:57:45;;;;;;;23.02;21.30;;;22.60;99.90;;;;;;5027404;28;20030;-76
2023/07/09 06:00:12;;;;;;;22.90;21.15;;;22.60;99.90;;;;;;5026807;28;20026;-75
2023/07/09 06:02:38;;;;;;;22.80;20.88;;;22.70;99.90;;;;;;5027223;28;20042;-75
2023/07/09 06:05:09;;;;;;;23.45;21.90;;;22.40;99.90;;;;;;5027440;28;20036;-75
2023/07/09 06:07:35;;;;;;;18.15;16.85;;;22.20;99.90;;;;;;5030267;28;20029;-76
2023/07/09 06:10:01;;;;;;;21.45;19.70;;;22.10;99.90;;;;;;5015413;28;20038;-75
2023/07/09 06:12:27;;;;;;;18.40;16.80;;;22.10;99.90;;;;;;5030557;28;20471;-76
2023/07/09 06:14:53;;;;;;;20.90;19.27;;;22.10;99.90;;;;;;5015760;28;20045;-76
2023/07/09 06:17:19;;;;;;;20.90;19.30;;;22.20;99.90;;;;;;4997499;28;20042;-75
2023/07/09 06:19:46;;;;;;;20.75;18.95;;;22.10;99.90;;;;;;5011122;28;20038;-75
2023/07/09 06:22:12;;;;;;;18.30;16.92;;;22.20;99.90;;;;;;4995760;28;20049;-76
2023/07/09 06:24:38;;;;;;;22.60;20.73;;;22.20;99.90;;;;;;4995544;28;20049;-75
2023/07/09 06:27:04;;;;;;;20.48;18.92;;;22.20;99.90;;;;;;4995681;28;20042;-75
2023/07/09 06:29:30;;;;;;;18.20;16.95;;;22.10;99.90;;;;;;5011158;28;20049;-76
2023/07/09 06:31:56;;;;;;;21.58;19.98;;;22.20;99.90;;;;;;5002384;28;20399;-76
2023/07/09 06:34:23;;;;;;;21.02;19.42;;;22.00;99.90;;;;;;5001564;28;20395;-75
2023/07/09 06:36:49;;;;;;;20.02;18.50;;;22.00;99.90;;;;;;5002476;28;20403;-76
2023/07/09 06:39:16;;;;;;;20.35;18.95;;;22.00;99.90;;;;;;5000934;28;20026;-75
2023/07/09 06:41:42;;;;;;;20.50;18.98;;;22.00;99.90;;;;;;5010471;28;20034;-75
2023/07/09 06:44:08;;;;;;;20.50;19.10;;;22.00;99.90;;;;;;5030445;28;20040;-75
2023/07/09 06:46:34;;;;;;;21.60;20.23;;;21.90;99.90;;;;;;5001633;28;20046;-75
2023/07/09 06:49:01;;;;;;;21.05;19.67;;;21.90;99.90;;;;;;5010478;28;20019;-76
2023/07/09 06:51:27;;;;;;;19.90;18.60;;;21.90;99.90;;;;;;4977848;28;20130;-76
2023/07/09 06:53:53;;;;;;;20.75;19.30;;;21.90;99.90;;;;;;5021840;28;20034;-75
2023/07/09 06:56:20;;;;;;;18.70;17.38;;;22.00;99.90;;;;;;5005170;28;20046;-75
2023/07/09 06:58:46;;;;;;;19.20;17.90;;;22.00;99.90;;;;;;5010369;28;20030;-75
2023/07/09 07:01:12;;;;;;;19.77;18.30;;;22.00;99.90;;;;;;4994638;28;20042;-76
2023/07/09 07:03:38;;;;;;;19.40;18.20;;;21.90;99.90;;;;;;5010300;28;20018;-75
2023/07/09 07:06:06;;;;;;;19.95;18.58;;;21.90;99.90;;;;;;5010137;28;20030;-75
2023/07/09 07:08:32;;;;;;;21.42;20.05;;;21.90;99.90;;;;;;5009222;28;20035;-75
2023/07/09 07:11:03;;;;;;;20.98;19.55;;;22.00;99.90;;;;;;5015126;28;20356;-75
2023/07/09 07:13:30;;;;;;;21.20;19.98;;;22.00;99.90;;;;;;4995173;28;20045;-75
2023/07/09 07:15:56;;;;;;;19.40;18.30;;;22.10;99.90;;;;;;5009380;28;20034;-75
2023/07/09 07:18:23;;;;;;;18.92;17.67;;;22.20;99.90;;;;;;4993958;28;20034;-76
2023/07/09 07:20:50;;;;;;;23.02;21.52;;;22.20;99.90;;;;;;4994708;28;20023;-76
2023/07/09 07:23:16;;;;;;;21.40;20.15;;;22.20;99.90;;;;;;4994624;28;20407;-75
2023/07/09 07:25:42;;;;;;;22.92;21.65;;;22.10;99.90;;;;;;4994660;28;20027;-75
2023/07/09 07:28:08;;;;;;;24.85;23.25;;;22.10;99.90;;;;;;4994936;28;20026;-75
2023/07/09 07:30:34;;;;;;;26.80;25.30;;;22.30;99.90;;;;;;4998498;28;20395;-75
2023/07/09 07:33:00;;;;;;;27.90;26.15;;;22.60;99.90;;;;;;5014301;28;20026;-75
2023/07/09 07:35:27;;;;;;;38.95;36.72;;;22.80;99.90;;;;;;5014062;28;20041;-75
2023/07/09 07:37:53;;;;;;;43.53;41.15;;;23.00;99.90;;;;;;4994308;28;20061;-75
2023/07/09 07:40:19;;;;;;;44.13;41.72;;;23.20;99.90;;;;;;4995525;28;20030;-75
2023/07/09 07:42:46;;;;;;;35.38;33.33;;;23.40;99.90;;;;;;5014089;28;20088;-75
2023/07/09 07:45:12;;;;;;;33.15;31.40;;;23.70;99.90;;;;;;5013333;28;20033;-75
2023/07/09 07:47:39;;;;;;;29.83;28.13;;;23.80;99.90;;;;;;4994154;28;20030;-75
2023/07/09 07:50:06;;;;;;;34.30;32.50;;;23.80;99.90;;;;;;4994488;28;20049;-75
2023/07/09 07:52:32;;;;;;;36.45;34.33;;;23.90;99.90;;;;;;4992678;28;20030;-75
2023/07/09 07:54:58;;;;;;;32.03;30.17;;;24.00;99.90;;;;;;4994300;28;20034;-75
2023/07/09 07:57:25;;;;;;;26.25;24.75;;;24.10;99.90;;;;;;4993784;28;20037;-75
2023/07/09 07:59:51;;;;;;;23.67;22.38;;;24.30;99.90;;;;;;4994071;28;20034;-75
2023/07/09 08:02:17;;;;;;;23.45;22.02;;;24.30;99.90;;;;;;5011440;28;20042;-75
2023/07/09 08:04:43;;;;;;;21.88;20.38;;;24.50;99.90;;;;;;5013701;28;20034;-75
2023/07/09 08:07:09;;;;;;;21.23;19.83;;;24.50;99.90;;;;;;5012670;28;20036;-75
2023/07/09 08:09:35;;;;;;;19.88;18.73;;;24.60;99.90;;;;;;5028693;28;20025;-75
2023/07/09 08:12:08;;;;;;;17.80;16.60;;;24.70;99.90;;;;;;5013139;28;20496;-75
2023/07/09 08:14:35;;;;;;;17.85;16.55;;;24.90;99.90;;;;;;5013322;28;20018;-75
2023/07/09 08:17:02;;;;;;;21.23;19.83;;;25.00;99.90;;;;;;5008292;28;20042;-75
2023/07/09 08:19:28;;;;;;;18.73;17.63;;;25.20;99.90;;;;;;4993865;28;20027;-75
2023/07/09 08:21:54;;;;;;;23.50;22.20;;;25.30;99.90;;;;;;4993092;28;20404;-76
2023/07/09 08:24:20;;;;;;;24.23;22.83;;;25.50;99.90;;;;;;4993715;28;20022;-75
2023/07/09 08:26:46;;;;;;;25.88;24.45;;;25.70;99.90;;;;;;4993646;28;20061;-75
2023/07/09 08:29:12;;;;;;;25.13;23.67;;;25.80;99.90;;;;;;5008605;28;20534;-75
2023/07/09 08:31:38;;;;;;;23.17;21.88;;;25.70;99.90;;;;;;5005922;28;20045;-75
2023/07/09 08:34:06;;;;;;;25.88;24.38;;;25.70;99.90;;;;;;5013273;28;20034;-75
2023/07/09 08:36:32;;;;;;;25.02;23.58;;;25.70;99.90;;;;;;4995613;28;20038;-75
2023/07/09 08:38:58;;;;;;;24.52;23.23;;;25.80;99.90;;;;;;4974072;28;20031;-74
2023/07/09 08:41:39;;;;;;;30.45;28.75;;;25.90;99.90;;;;;;4992316;28;20037;-75
2023/07/09 08:44:53;;;;;;;29.23;27.58;;;26.00;99.90;;;;;;5012911;28;20026;-75
2023/07/09 08:47:27;;;;;;;25.98;24.58;;;26.10;99.90;;;;;;4953816;28;20042;-75
2023/07/09 08:49:59;;;;;;;33.13;31.40;;;26.00;99.90;;;;;;4952166;29;20067;-75
2023/07/09 08:52:28;;;;;;;32.47;30.38;;;26.00;99.90;;;;;;4968424;28;20038;-75
2023/07/09 08:54:54;;;;;;;34.95;33.08;;;26.10;99.90;;;;;;4968622;28;20031;-75
2023/07/09 08:57:26;;;;;;;36.15;34.25;;;26.30;99.90;;;;;;4952052;28;20062;-75
2023/07/09 09:00:00;;;;;;;29.35;27.75;;;26.50;99.90;;;;;;4951856;29;20516;-75
2023/07/09 09:02:30;;;;;;;38.70;36.58;;;26.20;99.90;;;;;;4986465;28;20811;-75
2023/07/09 09:04:56;;;;;;;32.60;30.90;;;26.00;99.90;;;;;;4970911;28;20039;-75
2023/07/09 09:07:42;;;;;;;31.00;29.30;;;26.10;99.90;;;;;;4987124;28;20107;-75
2023/07/09 09:10:28;;;;;;;31.00;29.30;;;25.90;99.90;;;;;;4987667;28;20037;-75
2023/07/09 09:13:16;;;;;;;31.08;29.38;;;25.80;99.90;;;;;;4969010;28;20026;-75
2023/07/09 09:15:43;;;;;;;32.45;30.75;;;25.80;99.90;;;;;;4948259;29;20031;-75
2023/07/09 09:18:25;;;;;;;34.75;32.97;;;25.80;99.90;;;;;;4952105;29;20045;-75
2023/07/09 09:21:04;;;;;;;33.13;31.42;;;25.80;99.90;;;;;;4951813;29;20039;-75
2023/07/09 09:23:39;;;;;;;34.47;32.60;;;25.90;99.90;;;;;;4978147;28;20122;-75
2023/07/09 09:26:10;;;;;;;31.67;30.08;;;25.80;99.80;;;;;;5024234;28;20029;-75
2023/07/09 09:28:36;;;;;;;31.92;30.13;;;25.70;99.90;;;;;;4992160;28;20070;-75
2023/07/09 09:31:02;;;;;;;34.90;33.05;;;25.80;99.90;;;;;;4991173;28;20034;-75
2023/07/09 09:33:37;;;;;;;34.40;32.53;;;25.80;99.90;;;;;;4991415;28;20027;-75
2023/07/09 09:36:04;;;;;;;33.13;31.33;;;25.80;99.80;;;;;;4991282;28;20014;-75
2023/07/09 09:38:30;;;;;;;33.42;31.75;;;25.60;99.30;;;;;;5023919;28;20034;-76
2023/07/09 09:41:00;;;;;;;32.90;31.10;;;25.60;98.30;;;;;;4993934;28;20030;-75
2023/07/09 09:43:32;;;;;;;32.83;31.13;;;25.50;98.50;;;;;;4995379;28;20066;-75
2023/07/09 09:46:00;;;;;;;33.00;31.20;;;25.50;97.70;;;;;;5006625;28;20498;-75
2023/07/09 09:48:31;;;;;;;34.28;32.47;;;25.40;98.70;;;;;;5011068;28;20026;-75
2023/07/09 09:51:01;;;;;;;33.72;31.92;;;25.60;99.90;;;;;;4979166;28;20046;-75
2023/07/09 09:53:28;;;;;;;32.72;31.13;;;25.80;99.90;;;;;;5011215;28;20034;-75
2023/07/09 09:55:55;;;;;;;34.25;32.42;;;25.80;99.90;;;;;;5011251;28;20487;-75
2023/07/09 09:58:26;;;;;;;37.58;35.58;;;25.80;99.90;;;;;;5011648;28;20384;-74
2023/07/09 10:00:54;;;;;;;38.72;36.47;;;25.80;99.90;;;;;;5017093;28;20021;-75
2023/07/09 10:03:21;;;;;;;34.70;32.90;;;25.70;99.90;;;;;;5030670;28;20368;-75
2023/07/09 10:05:51;;;;;;;39.42;37.13;;;25.70;99.90;;;;;;5015577;28;20030;-75
2023/07/09 10:08:40;;;;;;;32.13;30.45;;;25.70;99.90;;;;;;5031350;28;20024;-75
2023/07/09 10:11:21;;;;;;;32.33;30.63;;;25.60;99.90;;;;;;5030059;28;20031;-75
2023/07/09 10:13:47;;;;;;;35.58;33.38;;;25.40;99.90;;;;;;5013005;28;20048;-75
2023/07/09 10:16:29;;;;;;;30.75;29.05;;;25.50;99.90;;;;;;5029932;28;20029;-73
2023/07/09 10:19:05;;;;;;;32.75;30.92;;;25.40;98.70;;;;;;5029863;28;20040;-74
2023/07/09 10:21:36;;;;;;;31.15;29.25;;;25.40;99.30;;;;;;5029794;28;20026;-75
2023/07/09 10:24:38;;;;;;;31.27;29.65;;;25.50;98.80;;;;;;5030832;28;20030;-77
2023/07/09 10:27:14;;;;;;;33.95;32.15;;;25.50;99.80;;;;;;5015154;28;20041;-75
2023/07/09 10:29:50;;;;;;;33.08;31.27;;;25.60;99.90;;;;;;5030083;28;20496;-77
2023/07/09 10:32:16;;;;;;;35.38;33.28;;;25.80;99.20;;;;;;5021347;28;20034;-75
2023/07/09 10:34:54;;;;;;;36.15;34.15;;;25.90;99.30;;;;;;4999883;28;20373;-75
2023/07/09 10:37:42;;;;;;;38.15;36.05;;;26.10;99.00;;;;;;4983865;28;20041;-76
2023/07/09 10:40:11;;;;;;;36.75;34.85;;;26.20;99.00;;;;;;4990381;28;20033;-75
2023/07/09 10:42:48;;;;;;;35.53;33.58;;;26.30;99.40;;;;;;4974827;28;20046;-75
2023/07/09 10:45:28;;;;;;;37.25;35.25;;;26.40;99.00;;;;;;4991022;28;20038;-75
2023/07/09 10:48:10;;;;;;;40.70;38.53;;;26.30;98.90;;;;;;4995438;28;20034;-76
2023/07/09 10:50:45;;;;;;;42.17;39.97;;;26.60;99.90;;;;;;5010224;28;20046;-75
2023/07/09 10:53:22;;;;;;;40.50;38.25;;;27.00;99.30;;;;;;4992818;28;20037;-75
2023/07/09 10:55:58;;;;;;;41.20;39.13;;;27.10;98.60;;;;;;5009354;28;20472;-75
2023/07/09 10:58:50;;;;;;;39.67;37.67;;;27.10;98.00;;;;;;4994053;28;20034;-75
2023/07/09 11:01:16;;;;;;;39.40;37.40;;;27.20;97.60;;;;;;5019267;28;20042;-75
2023/07/09 11:04:03;;;;;;;38.50;36.17;;;27.40;98.40;;;;;;5013459;28;20073;-75
2023/07/09 11:06:34;;;;;;;43.33;41.13;;;27.50;98.50;;;;;;5026330;28;20042;-75
2023/07/09 11:09:00;;;;;;;;;;;27.70;98.90;;;;;;5030561;28;20034;-75
2023/07/09 11:11:41;;;;;;;39.47;37.38;;;27.80;98.70;;;;;;5029843;28;20283;-75
2023/07/09 11:14:45;;;;;;;43.72;41.53;;;28.10;98.40;;;;;;5014655;28;20498;-76
2023/07/09 11:17:14;;;;;;;44.75;42.45;;;28.40;98.30;;;;;;5031155;28;20441;-76
2023/07/09 11:19:46;;;;;;;50.25;47.70;;;28.50;98.20;;;;;;4998984;28;20041;-76
2023/07/09 11:22:23;;;;;;;45.65;43.20;;;28.70;96.10;;;;;;5014912;28;20061;-76
2023/07/09 11:25:06;;;;;;;55.53;52.72;;;28.80;97.60;;;;;;4999373;28;20037;-75
2023/07/09 11:27:32;;;;;;;44.30;42.10;;;28.80;95.90;;;;;;5017115;28;20037;-75
2023/07/09 11:29:59;;;;;;;48.42;46.00;;;28.60;96.70;;;;;;5015039;28;20041;-75
2023/07/09 11:32:25;;;;;;;45.05;42.70;;;28.60;97.20;;;;;;5011455;28;20034;-75
2023/07/09 11:34:51;;;;;;;42.80;40.30;;;28.80;98.30;;;;;;4995813;28;20030;-75
2023/07/09 11:37:17;;;;;;;57.33;54.33;;;29.00;97.50;;;;;;5011475;28;20037;-75
2023/07/09 11:39:46;;;;;;;42.55;40.45;;;29.10;96.00;;;;;;5002071;28;20045;-76
2023/07/09 11:42:31;;;;;;;48.85;46.10;;;29.00;96.60;;;;;;4995255;28;20542;-75
2023/07/09 11:45:12;;;;;;;46.60;44.20;;;28.80;95.80;;;;;;5008166;28;20030;-75
2023/07/09 11:47:49;;;;;;;;;;;28.80;96.90;;;;;;4993180;28;20129;-76
2023/07/09 11:50:23;;;;;;;39.72;37.63;;;29.00;97.20;;;;;;5011558;28;19924;-76
2023/07/09 11:52:58;;;;;;;45.33;42.83;;;29.10;96.60;;;;;;4976071;28;20046;-76
2023/07/09 11:55:26;;;;;;;45.03;42.58;;;29.20;96.20;;;;;;4959493;28;20400;-75
2023/07/09 11:58:02;;;;;;;40.00;37.88;;;28.80;95.60;;;;;;4993875;28;20030;-75
2023/07/09 12:00:30;;;;;;;43.22;40.70;;;28.70;96.80;;;;;;5011988;28;20407;-76
2023/07/09 12:02:56;;;;;;;38.92;36.75;;;28.80;96.80;;;;;;5028357;28;20483;-76
2023/07/09 12:05:27;;;;;;;43.33;41.05;;;28.80;96.30;;;;;;5028535;28;20030;-76
2023/07/09 12:07:53;;;;;;;44.80;42.42;;;28.90;97.00;;;;;;5028758;28;20030;-76
2023/07/09 12:10:22;;;;;;;44.47;42.08;;;29.00;96.50;;;;;;5028682;28;20164;-76
2023/07/09 12:12:48;;;;;;;50.00;47.45;;;29.20;96.60;;;;;;5028214;28;20050;-75
2023/07/09 12:15:22;;;;;;;68.57;65.07;;;29.40;97.10;;;;;;5012821;28;20022;-75
2023/07/09 12:17:59;;;;;;;58.22;55.13;;;29.50;94.60;;;;;;5028410;28;20034;-75
2023/07/09 12:20:47;;;;;;;48.38;45.97;;;29.20;94.60;;;;;;5013183;28;20463;-75
2023/07/09 12:23:21;;;;;;;44.95;42.63;;;28.90;95.40;;;;;;5012113;28;20042;-75
2023/07/09 12:25:50;;;;;;;54.88;52.00;;;29.10;96.60;;;;;;5028236;28;20022;-76
2023/07/09 12:28:17;;;;;;;64.18;60.97;;;29.30;95.10;;;;;;5028311;28;20036;-75
2023/07/09 12:30:51;;;;;;;70.07;66.68;;;29.40;94.60;;;;;;5027696;28;20029;-75
2023/07/09 12:33:18;;;;;;;54.95;52.25;;;29.40;93.80;;;;;;5028325;28;20444;-75
2023/07/09 12:35:44;;;;;;;50.20;47.53;;;29.40;95.50;;;;;;5012647;28;20030;-76
2023/07/09 12:38:20;;;;;;;52.45;49.80;;;29.70;96.00;;;;;;5028408;28;20044;-76